createdAt,value
2022-08-01T05:58:28.741Z,18.80
2022-08-01T06:01:24.690Z,18.70
2022-08-01T06:04:14.653Z,18.60
2022-08-01T06:07:09.895Z,18.70
2022-08-01T06:09:58.142Z,18.90
2022-08-01T06:12:46.857Z,18.90
2022-08-01T06:15:40.985Z,19.10
2022-08-01T06:18:44.263Z,19.10
2022-08-01T06:21:32.416Z,19.30
2022-08-01T06:24:21.109Z,19.40
2022-08-01T06:27:22.174Z,19.60
2022-08-01T06:30:12.779Z,19.80
2022-08-01T06:33:03.610Z,19.60
2022-08-01T06:35:51.115Z,19.60
2022-08-01T06:38:40.695Z,19.60
2022-08-01T06:41:28.401Z,19.60
2022-08-01T06:44:19.266Z,19.60
2022-08-01T06:47:06.852Z,19.90
2022-08-01T06:49:54.651Z,19.90
2022-08-01T06:52:42.851Z,19.70
2022-08-01T06:55:31.492Z,19.90
2022-08-01T06:58:19.033Z,19.50
2022-08-01T07:01:08.729Z,19.40
2022-08-01T07:03:56.665Z,19.60
2022-08-01T07:06:44.908Z,19.40
2022-08-01T07:09:32.566Z,19.60
2022-08-01T07:12:23.736Z,19.70
2022-08-01T07:15:15.076Z,19.60
2022-08-01T07:18:05.812Z,19.60
2022-08-01T07:20:53.596Z,19.50
2022-08-01T07:23:45.870Z,19.40
2022-08-01T07:26:34.883Z,19.40
2022-08-01T07:29:24.172Z,19.60
2022-08-01T07:32:13.210Z,19.70
2022-08-01T07:35:01.209Z,19.90
2022-08-01T07:37:49.504Z,20.00
2022-08-01T07:40:37.675Z,20.20
2022-08-01T07:43:25.729Z,20.70
2022-08-01T07:46:13.406Z,20.70
2022-08-01T07:49:01.427Z,20.70
2022-08-01T07:52:02.480Z,20.60
2022-08-01T07:54:52.437Z,20.70
2022-08-01T07:57:41.038Z,20.40
2022-08-01T08:00:29.789Z,20.30
2022-08-01T08:03:22.451Z,20.50
2022-08-01T08:06:15.651Z,20.70
2022-08-01T08:09:03.376Z,21.00
2022-08-01T08:11:51.517Z,20.90
2022-08-01T08:14:42.526Z,20.60
2022-08-01T08:17:35.553Z,20.80
2022-08-01T08:20:26.162Z,21.20
2022-08-01T08:23:42.495Z,21.20
2022-08-01T08:26:31.259Z,20.90
2022-08-01T08:29:24.900Z,21.30
2022-08-01T08:32:20.408Z,21.70
2022-08-01T08:35:12.098Z,21.70
2022-08-01T08:38:08.231Z,21.50
2022-08-01T08:41:05.184Z,21.40
2022-08-01T08:44:01.493Z,21.20
2022-08-01T08:46:53.156Z,21.40
2022-08-01T08:49:49.313Z,21.50
2022-08-01T08:52:40.733Z,21.70
2022-08-01T08:55:29.674Z,22.10
2022-08-01T14:26:19.520Z,24.60
2022-08-01T14:29:07.779Z,24.90
2022-08-01T14:32:00.898Z,25.00
2022-08-01T14:34:51.523Z,24.50
2022-08-01T14:37:42.012Z,24.90
2022-08-01T14:40:33.489Z,24.90
2022-08-01T14:43:28.220Z,25.00
2022-08-01T14:46:24.859Z,25.30
2022-08-01T14:49:12.454Z,25.30
2022-08-01T14:52:00.456Z,25.20
2022-08-01T14:54:48.939Z,24.80
2022-08-01T14:57:40.100Z,24.90
2022-08-01T15:00:27.675Z,24.60
2022-08-01T15:03:15.348Z,24.60
2022-08-01T15:06:03.490Z,24.90
2022-08-01T15:08:51.227Z,25.00
2022-08-01T15:11:41.450Z,24.90
2022-08-01T15:14:48.031Z,24.90
2022-08-01T15:17:35.897Z,24.70
2022-08-01T15:20:23.859Z,25.00
2022-08-01T15:23:13.877Z,25.00
2022-08-01T15:26:04.322Z,24.80
2022-08-01T15:28:55.099Z,25.20
2022-08-01T15:31:45.590Z,24.80
2022-08-01T15:34:36.228Z,24.70
2022-08-01T15:37:27.280Z,24.70
2022-08-01T15:40:18.110Z,24.80
2022-08-01T15:43:09.286Z,24.50
2022-08-01T15:46:06.052Z,24.50
2022-08-01T15:48:56.685Z,24.60
2022-08-01T15:51:44.827Z,24.60
2022-08-01T15:54:37.096Z,24.30
2022-08-01T15:57:40.461Z,24.40
2022-08-01T16:00:39.562Z,24.40
2022-08-01T16:03:28.942Z,24.20
2022-08-01T16:06:16.698Z,24.10
2022-08-01T16:09:05.842Z,24.10
2022-08-01T16:11:53.473Z,24.10
2022-08-01T16:14:41.351Z,23.90
2022-08-01T16:17:30.737Z,23.30
2022-08-01T16:20:18.591Z,23.40
2022-08-01T16:23:12.762Z,23.20
2022-08-01T16:26:00.600Z,22.80
2022-08-01T16:28:53.052Z,22.60
2022-08-01T16:31:59.682Z,22.70
2022-08-01T16:34:51.523Z,22.40
2022-08-01T16:37:43.287Z,22.80
2022-08-01T16:40:31.060Z,22.80
2022-08-01T16:43:26.267Z,22.70
2022-08-01T16:46:19.890Z,22.40
2022-08-01T16:49:08.039Z,22.30
2022-08-01T16:51:56.567Z,22.10
2022-08-01T16:54:44.571Z,22.30
2022-08-01T16:57:37.157Z,22.10
2022-08-01T17:00:28.112Z,22.10
2022-08-01T17:03:17.386Z,22.50
2022-08-01T17:06:06.521Z,22.30
2022-08-01T17:08:59.432Z,22.30
2022-08-01T17:11:47.423Z,22.30
2022-08-01T17:14:35.227Z,22.30
2022-08-01T17:17:23.472Z,22.30
2022-08-01T17:20:17.633Z,22.00
2022-08-01T17:23:05.479Z,22.00
2022-08-01T17:26:01.195Z,21.90
2022-08-01T17:28:49.385Z,21.90
2022-08-01T17:31:36.805Z,22.30
2022-08-01T17:34:27.373Z,22.30
2022-08-01T17:37:14.812Z,22.10
2022-08-01T17:40:06.356Z,22.00
2022-08-01T17:43:10.654Z,22.00
2022-08-01T17:46:04.299Z,22.20
2022-08-01T17:48:54.275Z,22.30
2022-08-01T17:51:41.843Z,22.10
2022-08-01T17:54:29.199Z,22.10
2022-08-01T17:57:16.879Z,21.70
2022-08-01T18:00:09.745Z,21.80
2022-08-01T18:02:57.269Z,21.80
2022-08-01T18:05:44.724Z,21.70
2022-08-01T18:08:32.619Z,21.60
2022-08-01T18:11:23.068Z,21.10
2022-08-01T18:14:13.657Z,21.00
2022-08-01T18:24:40.708Z,21.30
2022-08-01T18:28:29.938Z,21.00
2022-08-01T18:30:36.544Z,21.10
2022-08-01T18:33:24.146Z,21.40
2022-08-01T18:36:25.515Z,21.30
2022-08-01T18:39:20.248Z,20.90
2022-08-01T18:42:07.745Z,20.80
2022-08-01T18:44:55.153Z,20.90
2022-08-01T18:47:42.851Z,20.60
2022-08-01T18:50:30.564Z,20.50
2022-08-01T18:53:18.923Z,20.50
2022-08-01T19:02:13.154Z,20.50
2022-08-01T19:05:00.512Z,20.30
2022-08-01T19:08:05.198Z,20.20
2022-08-01T19:10:55.252Z,20.20
2022-08-01T19:13:42.539Z,20.00
2022-08-01T19:16:30.495Z,20.20
2022-08-01T19:19:24.762Z,20.20
2022-08-01T19:22:16.681Z,20.40
2022-08-01T19:25:04.492Z,20.20
2022-08-01T19:27:52.453Z,20.10
2022-08-01T19:30:40.270Z,20.10
2022-08-01T19:33:32.141Z,20.00
2022-08-01T19:36:20.733Z,19.80
2022-08-01T19:39:10.379Z,19.80
2022-08-01T19:41:59.503Z,20.00
2022-08-01T19:44:47.747Z,19.90
2022-08-01T19:47:51.652Z,19.70
2022-08-01T19:50:46.459Z,19.70
2022-08-01T19:53:39.301Z,19.50
2022-08-01T19:56:28.142Z,19.50
2022-08-01T19:59:23.616Z,19.40
2022-08-01T20:02:14.870Z,19.50
2022-08-01T20:05:03.134Z,19.60
2022-08-01T20:07:51.291Z,19.40
2022-08-01T20:10:40.338Z,19.40
2022-08-01T20:13:36.992Z,19.30
2022-08-01T20:16:29.264Z,19.30
2022-08-01T20:19:18.859Z,19.20
2022-08-01T20:22:07.961Z,19.20
2022-08-01T20:24:59.029Z,19.20
2022-08-01T20:27:47.448Z,19.20
2022-08-01T20:30:34.788Z,19.10
2022-08-01T20:33:22.486Z,19.00
2022-08-01T20:36:12.336Z,19.10
2022-08-01T20:39:15.226Z,18.90
2022-08-01T20:42:04.313Z,18.90
2022-08-01T20:44:53.156Z,18.90
2022-08-01T20:47:41.366Z,18.90
2022-08-01T20:50:53.916Z,18.90
2022-08-01T20:53:45.652Z,18.90
2022-08-01T20:56:38.928Z,18.80
2022-08-01T20:59:57.334Z,18.70
2022-08-01T21:03:04.642Z,18.70
2022-08-01T21:06:04.458Z,18.70
2022-08-01T21:08:55.854Z,18.70
2022-08-01T21:11:51.682Z,18.70
2022-08-01T21:15:11.537Z,18.70
2022-08-01T21:18:15.137Z,18.50
2022-08-01T21:21:04.294Z,18.50
2022-08-01T21:24:03.625Z,18.60
2022-08-01T21:26:53.341Z,18.50
2022-08-01T21:29:41.673Z,18.50
2022-08-01T21:32:30.954Z,18.50
2022-08-01T21:35:22.965Z,18.50
2022-08-01T21:38:11.056Z,18.50
2022-08-01T21:41:56.017Z,18.50
2022-08-01T21:44:30.088Z,18.40
2022-08-01T21:47:18.506Z,18.40
2022-08-01T21:50:06.872Z,18.30
2022-08-01T21:53:32.304Z,18.30
2022-08-01T21:56:37.818Z,18.20
2022-08-01T21:59:48.505Z,18.30
2022-08-01T22:03:15.508Z,18.30
2022-08-01T22:06:04.361Z,18.30
2022-08-01T22:08:53.730Z,18.20
2022-08-01T22:12:00.942Z,18.20
2022-08-01T22:14:52.503Z,18.20
2022-08-01T22:17:41.401Z,18.20
2022-08-01T22:20:29.082Z,18.10
2022-08-01T22:23:17.781Z,18.20
2022-08-01T22:26:09.819Z,18.20
2022-08-01T22:28:58.710Z,18.20
2022-08-01T22:31:48.082Z,18.00
2022-08-01T22:34:35.470Z,18.10
2022-08-01T22:37:56.393Z,18.10
2022-08-01T22:52:54.017Z,18.10
2022-08-01T22:55:57.837Z,18.00
2022-08-01T22:58:48.802Z,18.00
2022-08-01T23:02:03.920Z,17.90
2022-08-01T23:05:01.300Z,18.10
2022-08-01T23:07:54.277Z,18.00
2022-08-01T23:10:43.763Z,18.00
2022-08-01T23:13:32.595Z,17.90
2022-08-01T23:16:21.843Z,17.80
2022-08-01T23:26:06.170Z,17.70
2022-08-01T23:29:08.669Z,17.60
2022-08-01T23:32:03.531Z,17.80
2022-08-01T23:35:01.440Z,17.70
2022-08-01T23:37:51.899Z,17.80
2022-08-01T23:40:42.200Z,17.80
2022-08-01T23:43:42.009Z,17.70
2022-08-01T23:46:40.212Z,17.70
2022-08-01T23:49:28.228Z,17.80
2022-08-01T23:52:20.546Z,17.80
2022-08-01T23:55:18.571Z,17.60
2022-08-01T23:58:27.392Z,17.50
